createdAt,value
2023-02-26T00:01:33.392Z,12.20
2023-02-26T00:04:35.465Z,12.20
2023-02-26T00:07:38.430Z,12.20
2023-02-26T00:10:40.714Z,12.20
2023-02-26T00:13:44.564Z,12.20
2023-02-26T00:17:34.236Z,12.20
2023-02-26T00:20:37.414Z,12.10
2023-02-26T00:23:39.646Z,12.10
2023-02-26T00:26:41.970Z,12.10
2023-02-26T00:29:44.450Z,12.10
2023-02-26T00:32:47.054Z,12.10
2023-02-26T00:35:55.348Z,12.10
2023-02-26T00:39:26.030Z,12.10
2023-02-26T00:42:28.414Z,12.10
2023-02-26T00:45:32.108Z,12.10
2023-02-26T00:48:46.362Z,12.10
2023-02-26T00:52:03.039Z,12.10
2023-02-26T00:55:05.785Z,12.10
2023-02-26T00:58:08.028Z,12.10
2023-02-26T01:01:10.488Z,12.10
2023-02-26T01:04:14.103Z,12.10
2023-02-26T01:07:20.131Z,12.10
2023-02-26T01:10:22.826Z,12.10
2023-02-26T01:13:25.521Z,12.10
2023-02-26T01:16:31.371Z,12.10
2023-02-26T01:19:47.725Z,12.10
2023-02-26T01:22:59.788Z,12.10
2023-02-26T01:26:14.828Z,12.10
2023-02-26T01:29:18.484Z,12.10
2023-02-26T01:32:46.087Z,12.10
2023-02-26T01:35:55.903Z,12.10
2023-02-26T01:39:11.897Z,12.10
2023-02-26T01:42:26.021Z,12.10
2023-02-26T01:45:35.369Z,12.10
2023-02-26T01:48:56.748Z,12.10
2023-02-26T01:52:24.517Z,12.10
2023-02-26T01:55:28.829Z,12.10
2023-02-26T01:58:35.358Z,12.10
2023-02-26T02:01:39.312Z,12.10
2023-02-26T02:04:42.876Z,12.10
2023-02-26T02:07:45.201Z,12.10
2023-02-26T02:10:48.962Z,12.10
2023-02-26T02:14:03.155Z,12.10
2023-02-26T02:17:17.535Z,12.10
2023-02-26T02:20:27.305Z,12.10
2023-02-26T02:23:40.398Z,12.10
2023-02-26T02:27:00.621Z,12.10
2023-02-26T02:30:34.045Z,12.10
2023-02-26T02:34:03.267Z,12.10
2023-02-26T02:37:28.157Z,12.10
2023-02-26T02:40:34.508Z,12.00
2023-02-26T02:43:41.021Z,12.10
2023-02-26T02:46:47.339Z,12.10
2023-02-26T02:50:17.715Z,12.00
2023-02-26T02:53:43.513Z,12.10
2023-02-26T02:56:57.301Z,12.10
2023-02-26T03:00:05.053Z,12.00
2023-02-26T03:03:33.072Z,12.00
2023-02-26T03:06:36.572Z,12.00
2023-02-26T03:09:39.189Z,12.00
2023-02-26T03:12:41.473Z,12.00
2023-02-26T03:16:10.365Z,12.00
2023-02-26T03:19:43.340Z,12.00
2023-02-26T03:22:49.368Z,12.00
2023-02-26T03:26:13.877Z,12.00
2023-02-26T03:29:39.889Z,11.90
2023-02-26T03:32:45.236Z,12.00
2023-02-26T03:36:01.077Z,12.00
2023-02-26T03:39:12.576Z,11.90
2023-02-26T03:42:29.802Z,11.90
2023-02-26T03:45:39.843Z,11.90
2023-02-26T03:48:44.405Z,11.90
2023-02-26T03:51:47.606Z,11.90
2023-02-26T03:55:41.526Z,11.90
2023-02-26T03:58:58.520Z,11.90
2023-02-26T04:02:25.534Z,11.90
2023-02-26T04:05:40.745Z,11.90
2023-02-26T04:08:43.964Z,11.90
2023-02-26T04:11:48.679Z,11.90
2023-02-26T04:14:51.522Z,11.90
2023-02-26T04:17:53.830Z,11.90
2023-02-26T04:20:56.170Z,11.90
2023-02-26T04:23:58.316Z,11.80
2023-02-26T04:27:00.624Z,11.80
2023-02-26T04:30:03.762Z,11.90
2023-02-26T04:33:07.639Z,11.80
2023-02-26T04:36:10.684Z,11.80
2023-02-26T04:39:13.208Z,11.80
2023-02-26T04:42:16.144Z,11.80
2023-02-26T04:45:18.320Z,11.80
2023-02-26T04:48:20.583Z,11.80
2023-02-26T04:51:22.937Z,11.80
2023-02-26T04:54:26.597Z,11.80
2023-02-26T04:57:28.686Z,11.80
2023-02-26T05:00:31.020Z,11.80
2023-02-26T05:03:33.833Z,11.80
2023-02-26T05:06:36.303Z,11.80
2023-02-26T05:09:38.487Z,11.80
2023-02-26T05:12:40.702Z,11.70
2023-02-26T05:15:43.144Z,11.70
2023-02-26T05:18:46.878Z,11.70
2023-02-26T05:21:49.444Z,11.70
2023-02-26T05:24:51.676Z,11.70
2023-02-26T05:27:53.817Z,11.70
2023-02-26T05:30:58.015Z,11.70
2023-02-26T05:34:00.780Z,11.70
2023-02-26T05:37:03.881Z,11.70
2023-02-26T05:40:09.918Z,11.70
2023-02-26T05:43:12.177Z,11.70
2023-02-26T05:46:14.493Z,11.70
2023-02-26T05:49:16.997Z,11.70
2023-02-26T05:52:19.185Z,11.70
2023-02-26T05:55:21.373Z,11.70
2023-02-26T05:58:23.975Z,11.60
2023-02-26T06:01:26.200Z,11.70
2023-02-26T06:04:28.345Z,11.60
2023-02-26T06:07:30.775Z,11.70
2023-02-26T06:10:33.429Z,11.60
2023-02-26T06:13:35.892Z,11.60
2023-02-26T06:16:38.253Z,11.60
2023-02-26T06:19:40.433Z,11.60
2023-02-26T06:22:42.885Z,11.60
2023-02-26T06:25:45.569Z,11.60
2023-02-26T06:28:47.742Z,11.60
2023-02-26T06:31:50.374Z,11.60
2023-02-26T06:34:52.598Z,11.60
2023-02-26T06:37:54.709Z,11.60
2023-02-26T06:40:57.400Z,11.50
2023-02-26T06:43:59.627Z,11.60
2023-02-26T06:47:01.892Z,11.50
2023-02-26T06:50:05.273Z,11.50
2023-02-26T06:53:08.073Z,11.50
2023-02-26T06:56:10.290Z,11.50
2023-02-26T06:59:12.496Z,11.50
2023-02-26T07:02:18.524Z,11.50
2023-02-26T07:05:20.750Z,11.50
2023-02-26T07:08:24.206Z,11.50
2023-02-26T07:11:26.360Z,11.50
2023-02-26T07:14:28.510Z,11.50
2023-02-26T07:17:30.691Z,11.50
2023-02-26T07:20:32.939Z,11.50
2023-02-26T07:23:35.454Z,11.50
2023-02-26T07:26:37.689Z,11.50
2023-02-26T07:29:39.902Z,11.50
2023-02-26T07:32:42.240Z,11.40
2023-02-26T07:35:44.476Z,11.40
2023-02-26T07:38:46.714Z,11.50
2023-02-26T07:41:48.898Z,11.40
2023-02-26T07:44:51.040Z,11.40
2023-02-26T07:47:53.206Z,11.40
2023-02-26T07:50:55.597Z,11.40
2023-02-26T07:53:57.819Z,11.40
2023-02-26T07:56:59.964Z,11.40
2023-02-26T08:00:02.332Z,11.40
2023-02-26T08:03:15.621Z,11.40
2023-02-26T08:06:17.861Z,11.40
2023-02-26T08:09:20.396Z,11.40
2023-02-26T08:12:22.619Z,11.40
2023-02-26T08:15:25.061Z,11.40
2023-02-26T08:18:27.258Z,11.40
2023-02-26T08:21:29.469Z,11.40
2023-02-26T08:24:31.684Z,11.30
2023-02-26T08:27:33.963Z,11.30
2023-02-26T08:30:36.168Z,11.40
2023-02-26T08:33:38.365Z,11.30
2023-02-26T08:36:40.597Z,11.30
2023-02-26T08:39:42.794Z,11.30
2023-02-26T08:42:45.048Z,11.30
2023-02-26T08:45:48.023Z,11.30
2023-02-26T08:48:50.202Z,11.30
2023-02-26T08:51:52.604Z,11.30
2023-02-26T08:54:54.806Z,11.30
2023-02-26T08:57:56.966Z,11.30
2023-02-26T09:00:59.138Z,11.30
2023-02-26T09:04:01.435Z,11.30
2023-02-26T09:07:04.099Z,11.30
2023-02-26T09:10:07.624Z,11.30
2023-02-26T09:13:09.834Z,11.30
2023-02-26T09:16:12.070Z,11.20
2023-02-26T09:19:14.480Z,11.20
2023-02-26T09:22:17.489Z,11.20
2023-02-26T09:25:19.751Z,11.20
2023-02-26T09:28:23.422Z,11.20
2023-02-26T09:31:25.778Z,11.20
2023-02-26T09:34:28.075Z,11.20
2023-02-26T09:37:30.551Z,11.20
2023-02-26T09:40:52.175Z,11.20
2023-02-26T09:44:07.703Z,11.20
2023-02-26T09:47:39.384Z,11.20
2023-02-26T09:50:48.492Z,11.20
2023-02-26T09:53:51.996Z,11.20
2023-02-26T09:56:56.952Z,11.10
2023-02-26T10:00:03.186Z,11.20
2023-02-26T10:03:38.230Z,11.20
2023-02-26T10:06:46.304Z,11.20
2023-02-26T10:10:15.705Z,11.10
2023-02-26T10:13:56.029Z,11.10
2023-02-26T10:21:04.092Z,11.10
2023-02-26T10:24:43.246Z,11.10
2023-02-26T10:28:07.142Z,11.10
2023-02-26T10:31:40.599Z,11.10
2023-02-26T10:35:09.175Z,11.10
2023-02-26T10:38:18.690Z,11.10
2023-02-26T10:41:25.952Z,11.10
2023-02-26T10:45:07.114Z,11.10
2023-02-26T10:48:39.251Z,11.10
2023-02-26T10:51:41.933Z,11.00
2023-02-26T10:55:07.705Z,11.10
2023-02-26T11:01:37.414Z,11.10
2023-02-26T11:04:40.379Z,11.00
2023-02-26T11:07:43.830Z,11.00
2023-02-26T11:10:52.162Z,11.00
2023-02-26T11:13:54.365Z,11.00
2023-02-26T11:17:00.809Z,11.00
2023-02-26T11:20:05.448Z,11.00
2023-02-26T11:23:13.772Z,11.00
2023-02-26T11:26:19.998Z,11.00
2023-02-26T11:29:23.393Z,11.00
2023-02-26T11:32:34.730Z,11.00
2023-02-26T11:35:37.320Z,11.00
2023-02-26T11:38:40.231Z,11.00
2023-02-26T11:41:46.988Z,11.00
2023-02-26T11:44:51.029Z,11.00
2023-02-26T11:48:04.199Z,11.00
2023-02-26T11:51:08.723Z,11.00
2023-02-26T11:54:23.323Z,11.00
2023-02-26T11:57:29.439Z,11.00
2023-02-26T12:00:36.156Z,11.00
2023-02-26T12:03:43.732Z,11.00
2023-02-26T12:06:49.489Z,11.00
2023-02-26T12:09:51.796Z,11.00
2023-02-26T12:13:22.743Z,10.90
2023-02-26T12:16:48.303Z,11.00
2023-02-26T12:20:15.487Z,10.90
2023-02-26T12:23:59.399Z,11.00
2023-02-26T12:27:29.494Z,11.00
2023-02-26T12:30:50.436Z,10.90
2023-02-26T12:34:07.715Z,10.90
2023-02-26T12:37:37.872Z,10.90
2023-02-26T12:40:58.787Z,10.90
2023-02-26T12:44:30.388Z,11.00
2023-02-26T12:47:54.223Z,10.90
2023-02-26T12:51:28.994Z,10.90
2023-02-26T12:54:37.449Z,10.90
2023-02-26T12:58:04.649Z,10.90
2023-02-26T13:01:15.430Z,10.90
2023-02-26T13:04:17.774Z,10.90
2023-02-26T13:07:57.245Z,10.90
2023-02-26T13:11:29.633Z,10.90
2023-02-26T13:14:56.535Z,10.90
2023-02-26T13:18:33.943Z,10.90
2023-02-26T13:21:43.568Z,10.90
2023-02-26T13:24:52.204Z,10.90
2023-02-26T13:27:57.259Z,10.90
2023-02-26T13:31:01.810Z,10.90
2023-02-26T13:34:11.608Z,10.90
2023-02-26T13:37:25.828Z,10.90
2023-02-26T13:40:39.946Z,10.90
2023-02-26T13:44:08.729Z,10.90
2023-02-26T13:47:35.834Z,10.90
2023-02-26T13:50:54.767Z,10.90
2023-02-26T13:54:04.541Z,10.90
2023-02-26T13:57:09.414Z,10.90
2023-02-26T14:00:47.396Z,10.90
2023-02-26T14:04:20.215Z,10.90
2023-02-26T14:07:47.396Z,10.90
2023-02-26T14:11:03.188Z,10.80
2023-02-26T14:14:26.542Z,10.90
2023-02-26T14:18:02.022Z,10.90
2023-02-26T14:21:59.118Z,10.90
2023-02-26T14:25:05.796Z,10.90
2023-02-26T14:28:26.383Z,10.90
2023-02-26T14:32:06.191Z,10.90
2023-02-26T14:35:39.797Z,10.80
2023-02-26T14:38:44.720Z,10.80
2023-02-26T14:41:47.181Z,10.90
2023-02-26T14:44:54.699Z,10.90
2023-02-26T14:48:02.150Z,10.90
2023-02-26T14:51:37.179Z,10.80
2023-02-26T14:55:31.285Z,10.80
2023-02-26T14:58:50.333Z,10.90
2023-02-26T15:02:22.996Z,10.80
2023-02-26T15:06:22.729Z,10.80
2023-02-26T15:09:48.296Z,10.80
2023-02-26T15:13:03.876Z,10.80
2023-02-26T15:16:23.853Z,10.80
2023-02-26T15:19:39.041Z,10.80
2023-02-26T15:22:44.290Z,10.80
2023-02-26T15:25:49.435Z,10.80
2023-02-26T15:28:53.211Z,10.80
2023-02-26T15:32:05.399Z,10.80
2023-02-26T15:35:29.281Z,10.80
2023-02-26T15:38:41.148Z,10.80
2023-02-26T15:41:47.338Z,10.80
2023-02-26T15:44:56.922Z,10.80
2023-02-26T15:48:02.606Z,10.80
2023-02-26T15:51:07.916Z,10.80
2023-02-26T15:54:17.831Z,10.80
2023-02-26T15:57:22.131Z,10.80
2023-02-26T16:00:27.514Z,10.80
2023-02-26T16:03:33.953Z,10.80
2023-02-26T16:06:42.871Z,10.80
2023-02-26T16:09:51.700Z,10.80
2023-02-26T16:12:55.346Z,10.80
2023-02-26T16:16:03.524Z,10.80
2023-02-26T16:19:07.018Z,10.80
2023-02-26T16:22:35.537Z,10.80
2023-02-26T16:25:50.769Z,10.80
2023-02-26T16:28:59.226Z,10.80
2023-02-26T16:32:03.753Z,10.80
2023-02-26T16:35:15.922Z,10.80
2023-02-26T16:39:10.066Z,10.80
2023-02-26T16:42:21.244Z,10.80
2023-02-26T16:45:45.838Z,10.80
2023-02-26T16:48:56.202Z,10.80
2023-02-26T16:51:59.869Z,10.80
2023-02-26T16:55:05.314Z,10.80
2023-02-26T16:58:12.816Z,10.80
2023-02-26T17:01:20.751Z,10.80
2023-02-26T17:04:32.010Z,10.80
2023-02-26T17:07:37.958Z,10.80
2023-02-26T17:10:48.673Z,10.80
2023-02-26T17:14:22.597Z,10.80
2023-02-26T17:17:25.738Z,10.80
2023-02-26T17:20:30.321Z,10.80
2023-02-26T17:23:37.049Z,10.80
2023-02-26T17:26:39.504Z,10.80
2023-02-26T17:29:44.197Z,10.80
2023-02-26T17:32:46.665Z,10.80
2023-02-26T17:35:49.591Z,10.80
2023-02-26T17:38:51.821Z,10.80
2023-02-26T17:41:54.049Z,10.80
2023-02-26T17:44:56.960Z,10.80
2023-02-26T17:47:59.339Z,10.70
2023-02-26T17:51:01.923Z,10.70
2023-02-26T17:57:32.764Z,10.70
2023-02-26T18:00:39.897Z,10.70
2023-02-26T18:03:43.510Z,10.70
2023-02-26T18:06:46.012Z,10.70
2023-02-26T18:09:48.643Z,10.70
2023-02-26T18:12:50.823Z,10.70
2023-02-26T18:15:55.167Z,10.70
2023-02-26T18:18:58.693Z,10.70
2023-02-26T18:22:00.796Z,10.70
2023-02-26T18:25:03.210Z,10.70
2023-02-26T18:28:06.072Z,10.70
2023-02-26T18:31:09.989Z,10.70
2023-02-26T18:34:13.360Z,10.70
2023-02-26T18:37:20.224Z,10.70
2023-02-26T18:40:24.154Z,10.70
2023-02-26T18:43:26.385Z,10.70
2023-02-26T18:46:30.120Z,10.70
2023-02-26T18:49:32.466Z,10.70
2023-02-26T18:52:35.836Z,10.70
2023-02-26T18:55:38.336Z,10.70
2023-02-26T18:58:40.706Z,10.70
2023-02-26T19:01:43.000Z,10.70
2023-02-26T19:04:47.202Z,10.70
2023-02-26T19:07:51.345Z,10.70
2023-02-26T19:10:53.892Z,10.70
2023-02-26T19:13:56.190Z,10.70
2023-02-26T19:16:58.625Z,10.70
2023-02-26T19:20:01.031Z,10.60
2023-02-26T19:23:03.172Z,10.70
2023-02-26T19:26:05.712Z,10.70
2023-02-26T19:29:10.107Z,10.70
2023-02-26T19:32:12.742Z,10.70
2023-02-26T19:35:15.370Z,10.70
2023-02-26T19:38:17.751Z,10.60
2023-02-26T19:41:20.230Z,10.70
2023-02-26T19:44:23.347Z,10.60
2023-02-26T19:47:25.513Z,10.60
2023-02-26T19:50:27.804Z,10.60
2023-02-26T19:53:31.469Z,10.60
2023-02-26T19:56:33.878Z,10.60
2023-02-26T19:59:36.157Z,10.60
2023-02-26T20:02:39.078Z,10.60
2023-02-26T20:05:41.430Z,10.60
2023-02-26T20:08:43.901Z,10.60
2023-02-26T20:11:46.526Z,10.60
2023-02-26T20:14:48.914Z,10.60
2023-02-26T20:17:51.146Z,10.60
2023-02-26T20:20:53.636Z,10.60
2023-02-26T20:23:57.717Z,10.60
2023-02-26T20:27:00.416Z,10.60
2023-02-26T20:30:03.822Z,10.60
2023-02-26T20:33:06.230Z,10.60
2023-02-26T20:36:10.038Z,10.60
2023-02-26T20:39:12.478Z,10.60
2023-02-26T20:42:14.918Z,10.60
2023-02-26T20:45:18.140Z,10.60
2023-02-26T20:48:20.387Z,10.60
2023-02-26T20:51:22.672Z,10.60
2023-02-26T20:54:24.858Z,10.60
2023-02-26T20:57:27.074Z,10.60
2023-02-26T21:00:29.675Z,10.60
2023-02-26T21:03:31.834Z,10.60
2023-02-26T21:06:34.580Z,10.60
2023-02-26T21:09:36.915Z,10.60
2023-02-26T21:12:39.511Z,10.50
2023-02-26T21:15:41.658Z,10.50
2023-02-26T21:18:43.787Z,10.50
2023-02-26T21:21:46.000Z,10.50
2023-02-26T21:24:48.197Z,10.50
2023-02-26T21:27:50.483Z,10.50
2023-02-26T21:30:53.628Z,10.50
2023-02-26T21:33:55.824Z,10.50
2023-02-26T21:36:58.038Z,10.50
2023-02-26T21:40:00.240Z,10.50
2023-02-26T21:43:04.394Z,10.50
2023-02-26T21:46:06.860Z,10.50
2023-02-26T21:49:08.997Z,10.50
2023-02-26T21:52:12.286Z,10.50
2023-02-26T21:55:14.503Z,10.50
2023-02-26T21:58:16.868Z,10.50
2023-02-26T22:01:19.013Z,10.50
2023-02-26T22:04:22.009Z,10.50
2023-02-26T22:07:24.163Z,10.50
2023-02-26T22:10:26.472Z,10.50
2023-02-26T22:13:28.630Z,10.50
2023-02-26T22:16:30.967Z,10.40
2023-02-26T22:19:33.077Z,10.50
2023-02-26T22:22:36.448Z,10.50
2023-02-26T22:25:38.652Z,10.50
2023-02-26T22:28:40.937Z,10.50
2023-02-26T22:31:43.255Z,10.40
2023-02-26T22:34:46.240Z,10.50
2023-02-26T22:37:48.527Z,10.40
2023-02-26T22:40:50.979Z,10.40
2023-02-26T22:43:54.079Z,10.50
2023-02-26T22:46:56.381Z,10.50
2023-02-26T22:49:58.858Z,10.50
2023-02-26T22:53:01.644Z,10.50
2023-02-26T22:56:03.895Z,10.40
2023-02-26T22:59:06.364Z,10.40
2023-02-26T23:02:08.616Z,10.50
2023-02-26T23:05:10.906Z,10.40
2023-02-26T23:08:13.089Z,10.40
2023-02-26T23:11:15.318Z,10.40
2023-02-26T23:14:17.873Z,10.40
2023-02-26T23:17:20.056Z,10.40
2023-02-26T23:20:22.346Z,10.40
2023-02-26T23:23:24.510Z,10.40
2023-02-26T23:26:26.780Z,10.40
2023-02-26T23:29:29.032Z,10.40
2023-02-26T23:32:31.386Z,10.40
2023-02-26T23:35:34.632Z,10.40
2023-02-26T23:38:37.012Z,10.40
2023-02-26T23:41:39.682Z,10.40
2023-02-26T23:44:41.796Z,10.40
2023-02-26T23:47:44.132Z,10.40
2023-02-26T23:50:48.501Z,10.40
2023-02-26T23:53:50.713Z,10.40
2023-02-26T23:56:52.950Z,10.40
2023-02-26T23:59:55.302Z,10.30
